Terminal Aerodrome Forecast
Issued by NWS Binghamton, NY

Current Version | Previous Version | Text Only | Print | Product List | Glossary On
Versions: 1 2 3 4 5 6 7 8 9 10 11 12 13 14 15 16 17 18 19 20
000
FTUS41 KBGM 050500
TAFBGM
TAF
KBGM 050538Z 0506/0606 31010KT P6SM OVC035
      TEMPO 0506/0510 2SM -SHSN OVC025
     FM051000 33008G16KT P6SM OVC025
     FM060100 31007KT P6SM SCT025=

USA.gov is the U.S. government's official web portal to all federal, state and local government web resources and services.